createdAt,value
2019-02-10T00:00:14.916Z,8.4
2019-02-10T00:03:15.096Z,8.4
2019-02-10T00:06:15.704Z,8.4
2019-02-10T00:09:15.212Z,8.3
2019-02-10T00:12:16.153Z,8.2
2019-02-10T00:15:15.711Z,8.1
2019-02-10T00:18:15.254Z,8.1
2019-02-10T00:21:15.826Z,8.1
2019-02-10T00:24:15.482Z,8.1
2019-02-10T00:27:15.098Z,8.1
2019-02-10T00:30:15.604Z,8.0
2019-02-10T00:33:15.104Z,8.1
2019-02-10T00:36:15.626Z,8.1
2019-02-10T00:39:15.004Z,8.1
2019-02-10T00:42:15.463Z,8.1
2019-02-10T00:45:14.931Z,8.2
2019-02-10T00:48:15.411Z,8.2
2019-02-10T00:51:15.842Z,8.3
2019-02-10T00:54:15.384Z,8.3
2019-02-10T00:57:14.992Z,8.4
2019-02-10T01:00:15.684Z,8.4
2019-02-10T01:03:15.368Z,8.5
2019-02-10T01:06:15.024Z,8.5
2019-02-10T01:09:15.527Z,8.5
2019-02-10T01:12:15.158Z,8.5
2019-02-10T01:15:15.822Z,8.5
2019-02-10T01:18:15.594Z,8.5
2019-02-10T01:21:15.178Z,8.5
2019-02-10T01:24:15.672Z,8.5
2019-02-10T01:27:15.351Z,8.5
2019-02-10T01:30:15.886Z,8.6
2019-02-10T01:33:15.300Z,8.5
2019-02-10T01:36:15.889Z,8.5
2019-02-10T01:39:15.308Z,8.4
2019-02-10T01:42:14.938Z,8.4
2019-02-10T01:45:15.411Z,8.3
2019-02-10T01:48:15.095Z,8.1
2019-02-10T01:51:15.480Z,8.0
2019-02-10T01:54:15.033Z,8.0
2019-02-10T01:57:15.660Z,7.9
2019-02-10T02:00:15.221Z,7.8
2019-02-10T02:03:15.582Z,7.8
2019-02-10T02:06:15.210Z,7.9
2019-02-10T02:09:15.826Z,7.9
2019-02-10T02:12:15.314Z,7.9
2019-02-10T02:15:15.747Z,8.0
2019-02-10T02:18:15.518Z,8.0
2019-02-10T02:21:15.049Z,8.1
2019-02-10T02:24:15.630Z,8.1
2019-02-10T02:27:14.990Z,8.2
2019-02-10T02:30:15.554Z,8.2
2019-02-10T02:33:14.961Z,8.2
2019-02-10T02:36:15.386Z,8.3
2019-02-10T02:39:14.964Z,8.3
2019-02-10T02:42:15.744Z,8.3
2019-02-10T02:45:15.378Z,8.3
2019-02-10T02:48:14.945Z,8.3
2019-02-10T02:51:15.505Z,8.3
2019-02-10T02:54:15.008Z,8.4
2019-02-10T02:57:15.578Z,8.5
2019-02-10T03:00:14.932Z,8.4
2019-02-10T03:03:15.560Z,8.4
2019-02-10T03:06:15.834Z,8.4
2019-02-10T03:09:15.698Z,8.3
2019-02-10T03:12:15.130Z,8.2
2019-02-10T03:15:15.637Z,8.2
2019-02-10T03:18:15.413Z,8.0
2019-02-10T03:21:15.094Z,7.9
2019-02-10T03:24:15.258Z,7.7
2019-02-10T03:27:15.744Z,7.5
2019-02-10T03:30:15.017Z,7.4
2019-02-10T03:33:15.322Z,7.4
2019-02-10T03:36:15.638Z,7.4
2019-02-10T03:39:14.960Z,7.4
2019-02-10T03:42:15.264Z,7.4
2019-02-10T03:45:15.682Z,7.5
2019-02-10T03:48:15.011Z,7.5
2019-02-10T03:51:15.289Z,7.5
2019-02-10T03:54:15.561Z,7.5
2019-02-10T03:57:15.055Z,7.5
2019-02-10T04:00:15.878Z,7.6
2019-02-10T04:03:15.400Z,7.6
2019-02-10T04:06:15.285Z,7.5
2019-02-10T04:09:15.819Z,7.5
2019-02-10T04:12:15.633Z,7.4
2019-02-10T04:15:15.213Z,7.4
2019-02-10T04:18:16.059Z,7.4
2019-02-10T04:21:15.707Z,7.4
2019-02-10T04:24:15.534Z,7.4
2019-02-10T04:27:15.225Z,7.4
2019-02-10T04:30:15.794Z,7.3
2019-02-10T04:33:15.227Z,7.3
2019-02-10T04:36:15.201Z,7.3
2019-02-10T04:39:15.781Z,7.3
2019-02-10T04:42:15.177Z,7.2
2019-02-10T04:45:15.670Z,7.2
2019-02-10T04:48:15.218Z,7.2
2019-02-10T04:51:15.649Z,7.1
2019-02-10T04:54:15.122Z,7.1
2019-02-10T04:57:15.619Z,7.1
2019-02-10T05:00:15.230Z,7.1
2019-02-10T05:03:15.716Z,7.1
2019-02-10T05:06:15.146Z,7.1
2019-02-10T05:09:15.724Z,7.1
2019-02-10T05:12:15.197Z,7.1
2019-02-10T05:15:15.544Z,7.1
2019-02-10T05:18:14.923Z,7.1
2019-02-10T05:21:15.406Z,7.1
2019-02-10T05:24:15.793Z,7.0
2019-02-10T05:27:15.314Z,7.1
2019-02-10T05:30:15.751Z,7.0
2019-02-10T05:33:15.421Z,7.0
2019-02-10T05:36:15.818Z,7.0
2019-02-10T05:39:15.376Z,7.1
2019-02-10T05:42:15.811Z,7.1
2019-02-10T05:45:15.305Z,7.2
2019-02-10T05:48:15.600Z,7.2
2019-02-10T05:51:15.199Z,7.2
2019-02-10T05:54:15.899Z,7.2
2019-02-10T05:57:15.294Z,7.2
2019-02-10T06:00:16.062Z,7.2
2019-02-10T06:03:14.916Z,7.3
2019-02-10T06:06:15.554Z,7.3
2019-02-10T06:09:15.115Z,7.3
2019-02-10T06:12:15.651Z,7.3
2019-02-10T06:15:15.271Z,7.3
2019-02-10T06:18:15.777Z,7.3
2019-02-10T06:21:15.342Z,7.3
2019-02-10T06:24:14.925Z,7.4
2019-02-10T06:27:15.327Z,7.3
2019-02-10T06:30:15.762Z,7.3
2019-02-10T06:33:15.913Z,7.3
2019-02-10T06:36:16.787Z,7.3
2019-02-10T06:39:15.354Z,7.3
2019-02-10T06:42:15.415Z,7.3
2019-02-10T06:45:15.849Z,7.3
2019-02-10T06:48:15.378Z,7.3
2019-02-10T06:51:15.985Z,7.4
2019-02-10T06:54:15.685Z,7.3
2019-02-10T06:57:15.516Z,7.4
2019-02-10T07:00:15.816Z,7.4
2019-02-10T07:03:15.942Z,7.4
2019-02-10T07:06:15.899Z,7.4
2019-02-10T07:09:15.696Z,7.5
2019-02-10T07:12:15.491Z,7.5
2019-02-10T07:15:15.736Z,7.5
2019-02-10T07:18:15.393Z,7.5
2019-02-10T07:21:14.944Z,7.5
2019-02-10T07:24:15.387Z,7.6
2019-02-10T07:27:15.143Z,7.6
2019-02-10T07:30:15.157Z,7.6
2019-02-10T07:33:15.191Z,7.7
2019-02-10T07:36:15.631Z,7.7
2019-02-10T07:39:15.740Z,7.7
2019-02-10T07:42:14.993Z,7.8
2019-02-10T07:45:15.606Z,7.8
2019-02-10T07:48:15.460Z,7.9
2019-02-10T07:51:15.300Z,7.9
2019-02-10T07:54:15.281Z,8.1
2019-02-10T07:57:14.994Z,8.1
2019-02-10T08:00:15.232Z,8.2
2019-02-10T08:03:15.285Z,8.2
2019-02-10T08:06:15.151Z,8.3
2019-02-10T08:09:15.846Z,8.3
2019-02-10T08:12:15.296Z,8.3
2019-02-10T08:15:15.508Z,8.3
2019-02-10T08:18:15.432Z,8.4
2019-02-10T08:21:15.230Z,8.4
2019-02-10T08:24:15.762Z,8.5
2019-02-10T08:27:15.259Z,8.6
2019-02-10T08:30:15.742Z,8.6
2019-02-10T08:33:15.291Z,8.7
2019-02-10T08:36:15.654Z,8.7
2019-02-10T08:39:15.690Z,8.7
2019-02-10T08:42:15.607Z,8.8
2019-02-10T08:45:15.762Z,8.9
2019-02-10T08:48:15.554Z,8.9
2019-02-10T08:51:15.061Z,9.0
2019-02-10T08:54:15.779Z,9.0
2019-02-10T08:57:15.323Z,9.0
2019-02-10T09:00:15.226Z,9.1
2019-02-10T09:03:19.563Z,9.1
2019-02-10T09:06:15.577Z,9.1
2019-02-10T09:09:15.592Z,9.1
2019-02-10T09:12:15.279Z,9.1
2019-02-10T09:15:15.237Z,9.2
2019-02-10T09:18:14.923Z,9.2
2019-02-10T09:21:15.660Z,9.2
2019-02-10T09:24:18.001Z,9.3
2019-02-10T09:27:15.738Z,9.3
2019-02-10T09:30:15.286Z,9.3
2019-02-10T09:33:15.880Z,9.3
2019-02-10T09:36:15.453Z,9.4
2019-02-10T09:39:15.079Z,9.4
2019-02-10T09:42:20.533Z,9.4
2019-02-10T09:45:15.153Z,9.5
2019-02-10T09:48:15.648Z,9.4
2019-02-10T09:51:15.170Z,9.5
2019-02-10T09:54:15.728Z,9.5
2019-02-10T09:57:15.481Z,9.5
2019-02-10T10:00:15.219Z,9.5
2019-02-10T10:03:15.775Z,9.5
2019-02-10T10:06:15.492Z,9.6
2019-02-10T10:09:19.550Z,9.6
2019-02-10T10:12:15.541Z,9.6
2019-02-10T10:15:15.325Z,9.6
2019-02-10T10:18:14.943Z,9.7
2019-02-10T10:21:15.593Z,9.7
2019-02-10T10:24:15.235Z,9.7
2019-02-10T10:27:14.895Z,9.7
2019-02-10T10:30:15.660Z,9.7
2019-02-10T10:33:15.254Z,9.7
2019-02-10T10:36:15.227Z,9.7
2019-02-10T10:39:15.829Z,9.8
2019-02-10T10:42:15.457Z,9.9
2019-02-10T10:45:15.079Z,9.9
2019-02-10T10:48:15.668Z,9.9
2019-02-10T10:51:15.280Z,9.9
2019-02-10T10:54:15.891Z,10.0
2019-02-10T10:57:16.009Z,10.0
2019-02-10T11:00:15.772Z,10.0
2019-02-10T11:03:17.222Z,10.0
2019-02-10T11:06:15.205Z,9.9
2019-02-10T11:09:15.858Z,10.0
2019-02-10T11:12:15.423Z,10.0
2019-02-10T11:15:14.992Z,9.9
2019-02-10T11:18:15.633Z,10.0
2019-02-10T11:21:15.235Z,10.0
2019-02-10T11:24:15.778Z,10.0
2019-02-10T11:27:15.541Z,10.1
2019-02-10T11:30:15.245Z,10.0
2019-02-10T11:33:14.922Z,10.0
2019-02-10T11:36:15.411Z,10.0
2019-02-10T11:39:15.043Z,10.0
2019-02-10T11:42:15.672Z,10.0
2019-02-10T11:45:15.260Z,10.0
2019-02-10T11:48:15.001Z,9.9
2019-02-10T11:51:15.466Z,9.9
2019-02-10T11:54:15.059Z,10.0
2019-02-10T11:57:15.595Z,10.0
2019-02-10T12:00:15.151Z,10.0
2019-02-10T12:03:15.818Z,9.9
2019-02-10T12:06:15.628Z,9.9
2019-02-10T12:09:15.202Z,9.9
2019-02-10T12:12:15.981Z,9.9
2019-02-10T12:15:15.465Z,9.9
2019-02-10T12:18:15.094Z,9.8
2019-02-10T12:21:15.614Z,9.9
2019-02-10T12:24:15.241Z,9.9
2019-02-10T12:27:15.856Z,9.9
2019-02-10T12:30:15.385Z,9.9
2019-02-10T12:33:15.029Z,9.9
2019-02-10T12:36:15.607Z,9.8
2019-02-10T12:39:15.227Z,9.8
2019-02-10T12:42:14.858Z,9.8
2019-02-10T12:45:15.367Z,9.8
2019-02-10T12:48:15.029Z,9.8
2019-02-10T12:51:15.543Z,9.8
2019-02-10T12:54:15.097Z,9.7
2019-02-10T12:57:15.663Z,9.7
2019-02-10T13:00:15.432Z,9.7
2019-02-10T13:03:15.018Z,9.7
2019-02-10T13:06:15.697Z,9.6
2019-02-10T13:09:15.477Z,9.6
2019-02-10T13:12:16.051Z,9.6
2019-02-10T13:15:15.724Z,9.5
2019-02-10T13:18:15.649Z,9.5
2019-02-10T13:21:15.133Z,9.5
2019-02-10T13:24:15.762Z,9.4
2019-02-10T13:27:15.391Z,9.4
2019-02-10T13:30:15.015Z,9.3
2019-02-10T13:33:15.615Z,9.2
2019-02-10T13:36:15.293Z,9.2
2019-02-10T13:39:15.893Z,9.1
2019-02-10T13:42:15.662Z,9.0
2019-02-10T13:45:15.327Z,9.1
2019-02-10T13:48:14.871Z,9.2
2019-02-10T13:51:15.612Z,9.2
2019-02-10T13:54:15.182Z,9.2
2019-02-10T13:57:15.739Z,9.2
2019-02-10T14:00:15.870Z,9.2
2019-02-10T14:03:15.685Z,9.1
2019-02-10T14:06:15.454Z,9.1
2019-02-10T14:09:14.976Z,8.9
2019-02-10T14:12:15.612Z,8.9
2019-02-10T14:15:15.859Z,8.8
2019-02-10T14:18:15.462Z,8.8
2019-02-10T14:21:15.175Z,8.9
2019-02-10T14:24:20.901Z,8.9
2019-02-10T14:27:15.057Z,8.9
2019-02-10T14:30:17.223Z,8.9
2019-02-10T14:33:15.121Z,8.8
2019-02-10T14:36:15.274Z,8.7
2019-02-10T14:39:15.862Z,8.7
2019-02-10T14:42:15.403Z,8.7
2019-02-10T14:45:14.950Z,8.7
2019-02-10T14:48:15.555Z,8.6
2019-02-10T14:51:15.115Z,8.6
2019-02-10T14:54:15.727Z,8.6
2019-02-10T14:57:15.548Z,8.6
2019-02-10T15:00:15.176Z,8.6
2019-02-10T15:03:15.783Z,8.6
2019-02-10T15:06:15.371Z,8.6
2019-02-10T15:09:15.868Z,8.5
2019-02-10T15:12:15.480Z,8.4
2019-02-10T15:15:15.394Z,8.4
2019-02-10T15:18:15.032Z,8.4
2019-02-10T15:21:15.496Z,8.3
2019-02-10T15:24:15.273Z,8.3
2019-02-10T15:27:15.757Z,8.3
2019-02-10T15:30:15.518Z,8.3
2019-02-10T15:33:15.346Z,8.4
2019-02-10T15:36:15.137Z,8.5
2019-02-10T15:39:15.851Z,8.5
2019-02-10T15:42:15.429Z,8.6
2019-02-10T15:45:15.044Z,8.4
2019-02-10T15:48:15.694Z,8.3
2019-02-10T15:51:15.346Z,8.3
2019-02-10T15:54:14.904Z,8.2
2019-02-10T15:57:15.507Z,8.2
2019-02-10T16:00:15.190Z,8.2
2019-02-10T16:03:15.774Z,8.1
2019-02-10T16:06:15.189Z,8.1
2019-02-10T16:09:15.843Z,8.0
2019-02-10T16:12:15.706Z,7.9
2019-02-10T16:15:15.534Z,7.9
2019-02-10T16:18:15.434Z,7.9
2019-02-10T16:21:15.053Z,7.8
2019-02-10T16:24:15.591Z,7.7
2019-02-10T16:27:15.384Z,7.6
2019-02-10T16:30:15.034Z,7.6
2019-02-10T16:33:16.009Z,7.6
2019-02-10T16:36:15.689Z,7.5
2019-02-10T16:39:15.364Z,7.4
2019-02-10T16:42:14.939Z,7.3
2019-02-10T16:45:15.501Z,7.3
2019-02-10T16:48:15.148Z,7.3
2019-02-10T16:51:14.902Z,7.3
2019-02-10T16:54:15.421Z,7.3
2019-02-10T16:57:14.989Z,7.3
2019-02-10T17:00:15.582Z,7.2
2019-02-10T17:03:15.219Z,7.2
2019-02-10T17:06:15.025Z,7.1
2019-02-10T17:09:15.834Z,7.1
2019-02-10T17:12:15.317Z,7.1
2019-02-10T17:15:15.781Z,7.1
2019-02-10T17:18:15.472Z,7.1
2019-02-10T17:21:15.163Z,7.0
2019-02-10T17:24:15.873Z,7.0
2019-02-10T17:27:15.502Z,7.0
2019-02-10T17:30:14.955Z,7.0
2019-02-10T17:33:15.662Z,6.9
2019-02-10T17:36:15.360Z,6.8
2019-02-10T17:39:14.951Z,6.7
2019-02-10T17:42:15.507Z,6.7
2019-02-10T17:45:15.102Z,6.6
2019-02-10T17:48:15.730Z,6.5
2019-02-10T17:51:15.490Z,6.4
2019-02-10T17:54:14.994Z,6.4
2019-02-10T17:57:15.707Z,6.4
2019-02-10T18:00:15.422Z,6.4
2019-02-10T18:03:15.778Z,6.4
2019-02-10T18:06:15.295Z,6.3
2019-02-10T18:09:14.908Z,6.4
2019-02-10T18:12:15.726Z,6.4
2019-02-10T18:15:15.119Z,6.4
2019-02-10T18:18:15.496Z,6.5
2019-02-10T18:21:15.149Z,6.4
2019-02-10T18:24:15.305Z,6.5
2019-02-10T18:27:15.575Z,6.5
2019-02-10T18:30:15.176Z,6.5
2019-02-10T18:33:15.397Z,6.6
2019-02-10T18:36:14.901Z,6.6
2019-02-10T18:39:15.357Z,6.7
2019-02-10T18:42:20.739Z,6.6
2019-02-10T18:45:15.774Z,6.7
2019-02-10T18:48:15.892Z,6.7
2019-02-10T18:51:15.520Z,6.9
2019-02-10T18:54:15.428Z,7.1
2019-02-10T18:57:15.657Z,7.1
2019-02-10T19:00:15.355Z,7.2
2019-02-10T19:03:15.695Z,7.2
2019-02-10T19:06:15.440Z,7.2
2019-02-10T19:09:15.416Z,7.2
2019-02-10T19:12:15.519Z,7.2
2019-02-10T19:15:16.289Z,7.2
2019-02-10T19:18:14.867Z,7.2
2019-02-10T19:21:15.013Z,7.2
2019-02-10T19:24:15.124Z,7.1
2019-02-10T19:27:15.866Z,7.1
2019-02-10T19:30:15.017Z,7.1
2019-02-10T19:33:15.751Z,7.0
2019-02-10T19:36:15.448Z,7.1
2019-02-10T19:39:15.608Z,7.1
2019-02-10T19:42:15.261Z,7.2
2019-02-10T19:45:15.494Z,7.3
2019-02-10T19:48:15.898Z,7.3
2019-02-10T19:51:15.584Z,7.4
2019-02-10T19:54:15.178Z,7.3
2019-02-10T19:57:15.375Z,7.3
2019-02-10T20:00:15.578Z,7.3
2019-02-10T20:03:15.810Z,7.2
2019-02-10T20:06:15.343Z,7.1
2019-02-10T20:09:15.562Z,6.9
2019-02-10T20:12:15.002Z,6.9
2019-02-10T20:15:15.555Z,6.7
2019-02-10T20:18:15.290Z,6.7
2019-02-10T20:21:15.740Z,6.6
2019-02-10T20:24:15.253Z,6.6
2019-02-10T20:27:15.234Z,6.5
2019-02-10T20:30:15.279Z,6.5
2019-02-10T20:33:15.049Z,6.4
2019-02-10T20:36:15.071Z,6.4
2019-02-10T20:39:14.978Z,6.4
2019-02-10T20:42:15.014Z,6.5
2019-02-10T20:45:15.150Z,6.4
2019-02-10T20:48:15.592Z,6.5
2019-02-10T20:51:14.912Z,6.6
2019-02-10T20:54:15.000Z,6.6
2019-02-10T20:57:15.406Z,6.6
2019-02-10T21:00:15.610Z,6.6
2019-02-10T21:03:15.200Z,6.6
2019-02-10T21:06:15.612Z,6.7
2019-02-10T21:09:15.683Z,6.6
2019-02-10T21:12:20.421Z,6.7
2019-02-10T21:15:15.845Z,6.6
2019-02-10T21:18:15.993Z,6.6
2019-02-10T21:21:15.481Z,6.7
2019-02-10T21:24:15.437Z,6.7
2019-02-10T21:27:15.804Z,6.7
2019-02-10T21:30:15.870Z,6.8
2019-02-10T21:33:15.881Z,6.7
2019-02-10T21:36:15.586Z,6.7
2019-02-10T21:39:15.011Z,6.8
2019-02-10T21:42:15.794Z,6.7
2019-02-10T21:45:15.575Z,6.7
2019-02-10T21:48:15.741Z,6.7
2019-02-10T21:51:14.998Z,6.7
2019-02-10T21:54:15.416Z,6.7
2019-02-10T21:57:15.036Z,6.7
2019-02-10T22:00:15.016Z,6.7
2019-02-10T22:03:15.574Z,6.6
2019-02-10T22:06:16.582Z,6.7
2019-02-10T22:09:15.623Z,6.6
2019-02-10T22:12:15.338Z,6.6
2019-02-10T22:15:15.441Z,6.5
2019-02-10T22:18:15.166Z,6.5
2019-02-10T22:21:15.693Z,6.5
2019-02-10T22:24:15.318Z,6.5
2019-02-10T22:27:15.856Z,6.5
2019-02-10T22:30:15.458Z,6.5
2019-02-10T22:33:14.843Z,6.5
2019-02-10T22:36:15.436Z,6.5
2019-02-10T22:39:14.914Z,6.5
2019-02-10T22:42:15.802Z,6.4
2019-02-10T22:45:15.172Z,6.4
2019-02-10T22:48:15.869Z,6.4
2019-02-10T22:51:15.457Z,6.4
2019-02-10T22:54:14.936Z,6.3
2019-02-10T22:57:15.493Z,6.3
2019-02-10T23:00:15.130Z,6.3
2019-02-10T23:03:15.816Z,6.3
2019-02-10T23:06:15.197Z,6.3
2019-02-10T23:09:15.891Z,6.4
2019-02-10T23:12:15.549Z,6.4
2019-02-10T23:15:14.951Z,6.4
2019-02-10T23:18:15.564Z,6.4
2019-02-10T23:21:15.091Z,6.5
2019-02-10T23:24:15.673Z,6.5
2019-02-10T23:27:15.324Z,6.4
2019-02-10T23:30:15.894Z,6.5
2019-02-10T23:33:15.420Z,6.5
2019-02-10T23:36:15.779Z,6.4
2019-02-10T23:39:15.485Z,6.4
2019-02-10T23:42:15.166Z,6.4
2019-02-10T23:45:15.670Z,6.4
2019-02-10T23:48:15.169Z,6.5
2019-02-10T23:51:14.818Z,6.4
2019-02-10T23:54:15.609Z,6.4
2019-02-10T23:57:15.109Z,6.5
